createdAt,value
2023-02-18T00:00:53.247Z,96.19
2023-02-18T00:01:53.235Z,95.67
2023-02-18T00:02:53.277Z,95.88
2023-02-18T00:03:53.361Z,95.98
2023-02-18T00:04:53.229Z,95.32
2023-02-18T00:05:53.224Z,95.47
2023-02-18T00:06:53.204Z,95.67
2023-02-18T00:07:53.237Z,95.57
2023-02-18T00:08:53.223Z,95.47
2023-02-18T00:09:53.202Z,95.57
2023-02-18T00:10:53.209Z,95.47
2023-02-18T00:11:53.205Z,95.37
2023-02-18T00:12:53.168Z,95.57
2023-02-18T00:13:53.173Z,95.47
2023-02-18T00:14:53.145Z,95.37
2023-02-18T00:15:53.201Z,95.37
2023-02-18T00:16:53.227Z,95.06
2023-02-18T00:17:53.130Z,95.57
2023-02-18T00:18:53.120Z,95.47
2023-02-18T00:19:53.119Z,95.57
2023-02-18T00:20:53.122Z,94.85
2023-02-18T00:21:53.097Z,95.06
2023-02-18T00:22:53.071Z,95.37
2023-02-18T00:23:53.108Z,94.40
2023-02-18T00:24:53.175Z,94.60
2023-02-18T00:25:53.082Z,94.65
2023-02-18T00:26:53.180Z,94.65
2023-02-18T00:27:53.040Z,94.71
2023-02-18T00:28:53.077Z,94.96
2023-02-18T00:31:11.696Z,95.26
2023-02-18T00:32:11.775Z,94.96
2023-02-18T00:33:12.835Z,94.96
2023-02-18T00:34:12.801Z,95.26
2023-02-18T00:35:12.763Z,94.75
2023-02-18T00:36:12.878Z,95.17
2023-02-18T00:37:12.784Z,95.31
2023-02-18T00:38:12.840Z,95.06
2023-02-18T00:39:12.813Z,95.17
2023-02-18T00:40:12.737Z,95.06
2023-02-18T00:41:12.725Z,95.17
2023-02-18T00:42:12.718Z,95.17
2023-02-18T00:43:44.605Z,95.21
2023-02-18T00:44:12.717Z,95.41
2023-02-18T00:45:12.685Z,95.10
2023-02-18T00:46:13.679Z,94.65
2023-02-18T00:47:12.695Z,94.24
2023-02-18T00:48:13.366Z,94.34
2023-02-18T00:49:12.831Z,94.75
2023-02-18T00:50:12.735Z,94.40
2023-02-18T00:51:13.607Z,94.45
2023-02-18T00:52:13.608Z,94.45
2023-02-18T00:53:12.653Z,94.45
2023-02-18T00:54:45.035Z,94.55
2023-02-18T00:55:44.656Z,94.96
2023-02-18T00:56:12.689Z,94.60
2023-02-18T00:57:12.607Z,94.96
2023-02-18T00:58:12.662Z,94.65
2023-02-18T00:59:12.639Z,94.65
2023-02-18T01:00:12.629Z,94.65
2023-02-18T01:01:12.667Z,95.41
2023-02-18T01:02:44.491Z,95.31
2023-02-18T01:03:12.590Z,95.00
2023-02-18T01:04:12.552Z,95.37
2023-02-18T01:05:12.567Z,95.06
2023-02-18T01:06:12.512Z,94.65
2023-02-18T01:07:12.534Z,94.34
2023-02-18T01:08:12.543Z,94.65
2023-02-18T01:09:44.448Z,94.65
2023-02-18T01:12:10.114Z,94.96
2023-02-18T01:13:18.172Z,94.75
2023-02-18T01:14:17.135Z,94.65
2023-02-18T01:15:43.230Z,94.24
2023-02-18T01:16:11.679Z,94.65
2023-02-18T01:17:43.667Z,94.14
2023-02-18T01:18:11.251Z,94.85
2023-02-18T01:19:43.118Z,94.55
2023-02-18T01:20:11.228Z,94.65
2023-02-18T01:21:43.145Z,94.75
2023-02-18T01:22:11.192Z,95.06
2023-02-18T01:23:11.203Z,94.96
2023-02-18T01:24:11.212Z,94.51
2023-02-18T01:25:11.201Z,94.40
2023-02-18T01:26:11.539Z,94.55
2023-02-18T01:27:11.180Z,94.55
2023-02-18T01:28:11.175Z,94.34
2023-02-18T01:29:11.133Z,94.40
2023-02-18T01:30:11.197Z,93.93
2023-02-18T01:31:11.265Z,94.34
2023-02-18T01:32:11.202Z,94.40
2023-02-18T01:33:11.233Z,94.75
2023-02-18T01:34:11.116Z,94.55
2023-02-18T01:35:11.079Z,94.55
2023-02-18T01:36:11.343Z,94.45
2023-02-18T01:37:11.082Z,94.45
2023-02-18T01:38:11.070Z,94.60
2023-02-18T01:39:11.079Z,94.75
2023-02-18T01:40:11.026Z,94.75
2023-02-18T01:41:11.061Z,94.65
2023-02-18T01:42:11.031Z,94.65
2023-02-18T01:43:11.071Z,94.55
2023-02-18T01:44:11.024Z,94.85
2023-02-18T01:45:11.001Z,94.45
2023-02-18T01:46:11.236Z,94.45
2023-02-18T01:47:10.980Z,94.65
2023-02-18T01:48:11.007Z,94.75
2023-02-18T01:49:10.972Z,94.96
2023-02-18T01:50:10.949Z,94.75
2023-02-18T01:51:10.942Z,94.45
2023-02-18T01:52:11.003Z,94.75
2023-02-18T01:53:10.934Z,95.26
2023-02-18T01:54:10.952Z,95.06
2023-02-18T01:55:10.936Z,94.96
2023-02-18T01:56:10.929Z,95.26
2023-02-18T01:57:10.935Z,95.22
2023-02-18T01:58:11.200Z,95.32
2023-02-18T01:59:10.930Z,95.26
2023-02-18T02:00:10.904Z,95.06
2023-02-18T02:01:10.964Z,94.85
2023-02-18T02:02:10.916Z,95.26
2023-02-18T02:03:10.884Z,95.26
2023-02-18T02:04:10.887Z,95.37
2023-02-18T02:05:10.915Z,95.26
2023-02-18T02:06:10.831Z,95.06
2023-02-18T02:07:10.832Z,94.92
2023-02-18T02:08:10.829Z,95.26
2023-02-18T02:09:10.860Z,95.26
2023-02-18T02:10:10.796Z,95.47
2023-02-18T02:11:10.787Z,95.37
2023-02-18T02:12:10.811Z,95.37
2023-02-18T02:13:10.801Z,94.75
2023-02-18T02:14:10.809Z,94.51
2023-02-18T02:15:10.765Z,94.55
2023-02-18T02:16:11.093Z,94.71
2023-02-18T02:17:10.780Z,94.40
2023-02-18T02:18:10.733Z,94.51
2023-02-18T02:19:10.718Z,94.65
2023-02-18T02:20:10.807Z,95.06
2023-02-18T02:21:10.718Z,95.06
2023-02-18T02:22:10.717Z,95.06
2023-02-18T02:23:10.739Z,95.26
2023-02-18T02:24:10.784Z,94.92
2023-02-18T02:25:10.702Z,95.37
2023-02-18T02:26:10.679Z,95.17
2023-02-18T02:27:10.696Z,95.37
2023-02-18T02:28:10.671Z,95.37
2023-02-18T02:29:10.670Z,95.67
2023-02-18T02:30:10.648Z,95.26
2023-02-18T02:31:10.724Z,95.47
2023-02-18T02:32:10.647Z,95.47
2023-02-18T02:33:10.623Z,95.98
2023-02-18T02:34:10.619Z,95.67
2023-02-18T02:35:10.614Z,96.19
2023-02-18T02:36:10.634Z,96.29
2023-02-18T02:37:10.709Z,95.98
2023-02-18T02:38:10.672Z,95.98
2023-02-18T02:39:10.578Z,96.29
2023-02-18T02:40:10.570Z,96.49
2023-02-18T02:41:10.594Z,96.19
2023-02-18T02:42:10.622Z,96.80
2023-02-18T02:43:10.576Z,96.29
2023-02-18T02:44:10.596Z,97.15
2023-02-18T02:45:10.574Z,96.64
2023-02-18T02:46:11.171Z,96.84
2023-02-18T02:47:10.543Z,96.95
2023-02-18T02:48:10.562Z,97.15
2023-02-18T02:49:10.597Z,97.15
2023-02-18T02:50:10.518Z,96.64
2023-02-18T02:51:10.512Z,96.74
2023-02-18T02:52:10.503Z,96.64
2023-02-18T02:53:10.503Z,96.84
2023-02-18T02:54:10.543Z,97.05
2023-02-18T02:55:10.488Z,96.91
2023-02-18T02:56:10.624Z,96.49
2023-02-18T02:57:10.478Z,95.98
2023-02-18T02:58:10.463Z,95.98
2023-02-18T02:59:10.473Z,95.98
2023-02-18T03:00:10.490Z,96.39
2023-02-18T03:01:10.447Z,96.80
2023-02-18T03:02:10.469Z,96.39
2023-02-18T03:03:10.451Z,97.21
2023-02-18T03:04:10.425Z,97.46
2023-02-18T03:05:10.416Z,97.41
2023-02-18T03:06:10.439Z,97.25
2023-02-18T03:07:10.399Z,97.11
2023-02-18T03:08:10.347Z,97.05
2023-02-18T03:09:10.373Z,97.25
2023-02-18T03:10:10.369Z,97.46
2023-02-18T03:11:10.341Z,97.97
2023-02-18T03:12:10.362Z,97.25
2023-02-18T03:13:10.326Z,97.15
2023-02-18T03:14:10.294Z,97.77
2023-02-18T03:15:10.345Z,98.07
2023-02-18T03:16:10.663Z,97.87
2023-02-18T03:17:10.309Z,98.07
2023-02-18T03:18:10.271Z,97.87
2023-02-18T03:19:10.251Z,97.46
2023-02-18T03:20:10.270Z,97.05
2023-02-18T03:21:10.281Z,97.05
2023-02-18T03:22:10.265Z,96.95
2023-02-18T03:23:10.239Z,96.95
2023-02-18T03:24:10.237Z,97.05
2023-02-18T03:25:10.298Z,97.15
2023-02-18T03:26:10.535Z,96.84
2023-02-18T03:27:10.281Z,96.29
2023-02-18T03:28:10.217Z,96.08
2023-02-18T03:29:10.193Z,96.19
2023-02-18T03:30:10.289Z,96.08
2023-02-18T03:31:10.263Z,96.08
2023-02-18T03:32:10.318Z,96.23
2023-02-18T03:33:10.183Z,96.95
2023-02-18T03:34:10.225Z,96.29
2023-02-18T03:35:10.152Z,97.05
2023-02-18T03:36:10.433Z,96.84
2023-02-18T03:37:10.135Z,97.15
2023-02-18T03:38:10.144Z,96.74
2023-02-18T03:39:10.148Z,97.25
2023-02-18T03:40:10.141Z,97.25
2023-02-18T03:41:10.132Z,97.15
2023-02-18T03:42:10.102Z,97.25
2023-02-18T03:43:10.118Z,96.95
2023-02-18T03:44:10.108Z,97.25
2023-02-18T03:45:10.075Z,96.84
2023-02-18T03:46:42.002Z,97.15
2023-02-18T04:03:00.069Z,96.23
2023-02-18T04:04:00.117Z,96.95
2023-02-18T04:04:59.982Z,96.64
2023-02-18T04:05:59.979Z,96.64
2023-02-18T04:07:01.183Z,96.44
2023-02-18T04:08:01.106Z,96.23
2023-02-18T04:09:01.078Z,96.23
2023-02-18T04:10:01.089Z,96.54
2023-02-18T04:11:01.117Z,96.33
2023-02-18T04:12:01.085Z,96.54
2023-02-18T04:13:01.090Z,96.44
2023-02-18T04:14:01.078Z,96.13
2023-02-18T04:15:02.034Z,96.44
2023-02-18T04:16:01.042Z,96.44
2023-02-18T04:17:01.669Z,96.33
2023-02-18T04:18:01.006Z,96.44
2023-02-18T04:19:01.006Z,96.33
2023-02-18T04:20:01.232Z,96.23
2023-02-18T04:21:00.977Z,96.84
2023-02-18T04:22:00.965Z,96.33
2023-02-18T04:23:00.990Z,96.33
2023-02-18T04:24:01.006Z,96.28
2023-02-18T04:25:00.953Z,96.44
2023-02-18T04:26:00.950Z,96.13
2023-02-18T04:27:00.926Z,96.13
2023-02-18T04:28:00.947Z,96.54
2023-02-18T04:29:00.922Z,96.44
2023-02-18T04:30:01.031Z,96.64
2023-02-18T04:31:00.992Z,96.44
2023-02-18T04:32:00.961Z,96.54
2023-02-18T04:33:00.890Z,96.54
2023-02-18T04:34:00.884Z,95.92
2023-02-18T04:35:00.894Z,96.54
2023-02-18T04:36:00.914Z,96.33
2023-02-18T04:37:00.875Z,96.44
2023-02-18T04:38:00.871Z,96.44
2023-02-18T04:39:00.875Z,96.44
2023-02-18T04:40:00.946Z,96.64
2023-02-18T04:41:00.900Z,96.23
2023-02-18T04:42:00.872Z,96.33
2023-02-18T04:43:00.880Z,96.13
2023-02-18T04:44:00.858Z,96.23
2023-02-18T04:45:00.811Z,96.23
2023-02-18T04:46:00.870Z,96.13
2023-02-18T04:47:00.798Z,95.92
2023-02-18T04:48:00.794Z,96.13
2023-02-18T04:49:00.790Z,95.72
2023-02-18T04:50:00.785Z,95.72
2023-02-18T04:51:00.783Z,96.44
2023-02-18T04:52:00.766Z,95.72
2023-02-18T04:53:00.743Z,96.13
2023-02-18T04:54:00.787Z,96.13
2023-02-18T04:55:00.782Z,96.44
2023-02-18T04:56:00.745Z,95.62
2023-02-18T04:57:00.771Z,95.51
2023-02-18T04:58:00.731Z,95.51
2023-02-18T04:59:00.701Z,95.00
2023-02-18T05:00:00.689Z,95.51
2023-02-18T05:01:00.764Z,95.41
2023-02-18T05:02:00.661Z,95.31
2023-02-18T05:03:01.529Z,95.62
2023-02-18T05:04:00.706Z,95.31
2023-02-18T05:05:00.661Z,95.62
2023-02-18T05:06:00.631Z,95.26
2023-02-18T05:07:00.629Z,95.47
2023-02-18T05:08:00.642Z,95.06
2023-02-18T05:09:00.649Z,95.06
2023-02-18T05:10:00.620Z,95.06
2023-02-18T05:11:00.627Z,94.85
2023-02-18T05:12:00.601Z,95.26
2023-02-18T05:13:00.604Z,95.37
2023-02-18T05:14:00.628Z,95.57
2023-02-18T05:15:00.588Z,95.37
2023-02-18T05:16:00.680Z,95.26
2023-02-18T05:17:00.569Z,96.29
2023-02-18T05:18:00.535Z,96.08
2023-02-18T05:19:00.577Z,96.33
2023-02-18T05:20:00.548Z,96.84
2023-02-18T05:21:00.537Z,96.49
2023-02-18T05:22:00.511Z,97.05
2023-02-18T05:23:00.526Z,97.15
2023-02-18T05:24:00.528Z,97.56
2023-02-18T05:25:00.515Z,97.97
2023-02-18T05:26:00.489Z,98.07
2023-02-18T05:27:00.489Z,98.49
2023-02-18T05:28:00.484Z,99.20
2023-02-18T05:29:00.457Z,99.25
2023-02-18T05:30:00.528Z,99.25
2023-02-18T05:31:00.550Z,99.86
2023-02-18T05:32:00.557Z,99.96
2023-02-18T05:33:00.444Z,99.96
2023-02-18T05:34:00.457Z,99.86
2023-02-18T05:35:00.433Z,99.99
2023-02-18T05:36:00.495Z,99.99
2023-02-18T05:37:00.429Z,99.99
2023-02-18T05:38:00.422Z,99.99
2023-02-18T05:39:00.462Z,99.99
2023-02-18T05:40:00.383Z,99.99
2023-02-18T05:41:00.377Z,99.99
2023-02-18T05:42:00.426Z,99.99
2023-02-18T05:43:00.364Z,99.99
2023-02-18T05:44:00.410Z,99.99
2023-02-18T05:45:00.350Z,99.99
2023-02-18T05:46:00.497Z,99.99
2023-02-18T05:47:00.345Z,99.99
2023-02-18T05:48:00.338Z,99.99
2023-02-18T05:49:00.342Z,99.99
2023-02-18T05:50:00.302Z,99.99
2023-02-18T05:51:00.314Z,99.99
2023-02-18T05:52:00.303Z,99.99
2023-02-18T05:53:00.288Z,99.99
2023-02-18T05:54:00.344Z,99.99
2023-02-18T05:55:00.264Z,99.99
2023-02-18T05:56:00.254Z,99.99
2023-02-18T05:57:00.327Z,99.99
2023-02-18T05:58:00.275Z,99.99
2023-02-18T05:59:00.326Z,99.99
2023-02-18T06:00:00.466Z,99.99
2023-02-18T06:01:01.268Z,99.99
2023-02-18T06:02:00.198Z,99.99
2023-02-18T06:03:00.331Z,99.99
2023-02-18T06:04:00.197Z,99.99
2023-02-18T06:05:00.233Z,99.99
2023-02-18T06:06:00.258Z,99.99
2023-02-18T06:07:00.165Z,99.99
2023-02-18T06:08:00.212Z,99.99
2023-02-18T06:09:00.162Z,99.99
2023-02-18T06:10:00.262Z,99.99
2023-02-18T06:11:00.153Z,99.99
2023-02-18T06:12:00.134Z,99.99
2023-02-18T06:13:00.162Z,99.99
2023-02-18T06:14:00.112Z,99.99
2023-02-18T06:15:00.175Z,99.99
2023-02-18T06:16:00.139Z,99.99
2023-02-18T06:17:00.111Z,99.99
2023-02-18T06:18:00.261Z,99.99
2023-02-18T06:19:00.134Z,99.99
2023-02-18T06:20:00.074Z,99.99
2023-02-18T06:21:04.149Z,99.99
2023-02-18T06:22:00.051Z,99.99
2023-02-18T06:23:00.021Z,99.99
2023-02-18T06:24:00.078Z,99.99
2023-02-18T06:25:00.017Z,99.99
2023-02-18T06:26:00.057Z,99.99
2023-02-18T06:27:00.058Z,99.99
2023-02-18T06:28:00.002Z,99.66
2023-02-18T06:29:00.013Z,99.76
2023-02-18T06:30:31.918Z,99.76
2023-02-18T06:31:00.121Z,99.45
2023-02-18T06:32:00.206Z,99.20
2023-02-18T06:32:59.941Z,98.83
2023-02-18T06:33:59.981Z,98.69
2023-02-18T06:34:59.915Z,98.28
2023-02-18T06:35:59.919Z,98.38
2023-02-18T06:37:01.302Z,98.18
2023-02-18T06:38:00.910Z,98.69
2023-02-18T06:38:59.896Z,98.58
2023-02-18T06:39:59.912Z,98.58
2023-02-18T06:40:59.886Z,98.38
2023-02-18T06:41:59.897Z,97.92
2023-02-18T06:42:59.872Z,98.03
2023-02-18T06:44:00.585Z,98.13
2023-02-18T06:45:00.748Z,97.82
2023-02-18T06:45:59.846Z,97.82
2023-02-18T06:46:59.869Z,97.72
2023-02-18T06:47:59.894Z,97.72
2023-02-18T06:48:59.813Z,97.62
2023-02-18T06:49:59.806Z,97.41
2023-02-18T06:50:59.797Z,97.31
2023-02-18T06:51:59.897Z,97.41
2023-02-18T06:52:59.829Z,97.82
2023-02-18T06:53:59.794Z,97.52
2023-02-18T06:54:59.768Z,97.82
2023-02-18T06:55:59.750Z,98.13
2023-02-18T06:56:59.784Z,97.92
2023-02-18T06:57:59.755Z,98.03
2023-02-18T06:58:59.813Z,97.92
2023-02-18T06:59:59.722Z,97.66
2023-02-18T07:00:59.738Z,97.56
2023-02-18T07:01:59.719Z,98.07
2023-02-18T07:02:59.729Z,98.07
2023-02-18T07:03:59.819Z,98.13
2023-02-18T07:04:59.728Z,98.54
2023-02-18T07:05:59.680Z,98.13
2023-02-18T07:06:59.687Z,98.44
2023-02-18T07:07:59.657Z,98.44
2023-02-18T07:08:59.689Z,98.24
2023-02-18T07:09:59.652Z,98.49
2023-02-18T07:10:59.671Z,98.69
2023-02-18T07:11:59.634Z,98.69
2023-02-18T07:12:59.630Z,98.90
2023-02-18T07:13:59.644Z,99.10
2023-02-18T07:14:59.634Z,98.79
2023-02-18T07:15:59.688Z,98.79
2023-02-18T07:16:59.608Z,98.79
2023-02-18T07:17:59.591Z,98.74
2023-02-18T07:18:59.589Z,98.69
2023-02-18T07:19:59.630Z,98.85
2023-02-18T07:20:59.585Z,98.95
2023-02-18T07:21:59.566Z,98.99
2023-02-18T07:22:59.552Z,98.99
2023-02-18T07:23:59.553Z,98.74
2023-02-18T07:24:59.557Z,98.79
2023-02-18T07:25:59.815Z,98.79
2023-02-18T07:27:00.134Z,99.20
2023-02-18T07:27:59.512Z,99.10
2023-02-18T07:28:59.551Z,99.30
2023-02-18T07:29:59.514Z,99.61
2023-02-18T07:30:59.567Z,99.51
2023-02-18T07:31:59.547Z,99.82
2023-02-18T07:32:59.479Z,99.82
2023-02-18T07:33:59.458Z,99.99
2023-02-18T07:34:59.459Z,99.99
2023-02-18T07:35:59.471Z,99.99
2023-02-18T07:37:00.224Z,99.99
2023-02-18T07:37:59.468Z,99.99
2023-02-18T07:38:59.416Z,99.99
2023-02-18T07:39:59.429Z,99.99
2023-02-18T07:40:59.415Z,99.99
2023-02-18T07:41:59.424Z,99.99
2023-02-18T07:42:59.434Z,99.99
2023-02-18T07:43:59.397Z,99.99
2023-02-18T07:44:59.400Z,99.99
2023-02-18T07:45:59.434Z,99.99
2023-02-18T07:46:59.371Z,99.99
2023-02-18T07:47:59.385Z,99.99
2023-02-18T07:48:59.362Z,99.99
2023-02-18T07:49:59.348Z,99.99
2023-02-18T07:50:59.338Z,99.99
2023-02-18T07:51:59.364Z,99.99
2023-02-18T07:52:59.377Z,99.99
2023-02-18T07:53:59.337Z,99.99
2023-02-18T07:54:59.322Z,99.99
2023-02-18T07:55:59.329Z,99.99
2023-02-18T07:56:59.281Z,99.99
2023-02-18T07:57:59.304Z,99.99
2023-02-18T07:58:59.271Z,99.99
2023-02-18T07:59:59.259Z,99.99
2023-02-18T08:00:59.271Z,99.99
2023-02-18T08:01:59.291Z,99.99
2023-02-18T08:02:59.293Z,99.99
2023-02-18T08:03:59.266Z,99.99
2023-02-18T08:04:59.287Z,99.99
2023-02-18T08:05:59.226Z,99.99
2023-02-18T08:06:59.209Z,99.99
2023-02-18T08:07:59.199Z,99.99
2023-02-18T08:08:59.282Z,99.99
2023-02-18T08:09:59.205Z,99.99
2023-02-18T08:11:01.049Z,99.99
2023-02-18T08:11:59.206Z,99.99
2023-02-18T08:12:59.155Z,99.99
2023-02-18T08:13:59.154Z,99.99
2023-02-18T08:14:59.170Z,99.99
2023-02-18T08:15:59.162Z,99.99
2023-02-18T08:16:59.203Z,99.99
2023-02-18T08:17:59.149Z,99.99
2023-02-18T08:18:59.133Z,99.99
2023-02-18T08:19:59.111Z,99.99
2023-02-18T08:21:00.108Z,99.99
2023-02-18T08:21:59.099Z,99.99
2023-02-18T08:22:59.088Z,99.99
2023-02-18T08:23:59.103Z,99.99
2023-02-18T08:24:59.106Z,99.99
2023-02-18T08:25:59.119Z,99.99
2023-02-18T08:27:01.077Z,99.99
2023-02-18T08:28:00.063Z,99.99
2023-02-18T08:28:59.050Z,99.99
2023-02-18T08:29:59.090Z,99.99
2023-02-18T08:30:59.103Z,99.99
2023-02-18T08:31:59.090Z,99.99
2023-02-18T08:32:59.018Z,99.99
2023-02-18T08:33:59.022Z,99.99
2023-02-18T08:34:59.000Z,99.99
2023-02-18T08:35:59.008Z,99.99
2023-02-18T08:36:58.984Z,99.99
2023-02-18T08:37:58.962Z,99.99
2023-02-18T08:38:59.594Z,99.99
2023-02-18T08:39:58.991Z,99.99
2023-02-18T08:40:58.972Z,99.99
2023-02-18T08:41:59.000Z,99.99
2023-02-18T08:42:59.994Z,99.99
2023-02-18T08:43:58.932Z,99.99
2023-02-18T08:44:58.934Z,99.99
2023-02-18T08:45:58.949Z,99.99
2023-02-18T08:46:58.909Z,99.99
2023-02-18T08:48:18.755Z,99.99
2023-02-18T08:48:59.931Z,99.99
2023-02-18T08:49:58.897Z,99.99
2023-02-18T08:50:58.899Z,99.99
2023-02-18T08:51:58.890Z,99.99
2023-02-18T08:52:58.852Z,99.99
2023-02-18T08:53:58.851Z,99.99
2023-02-18T08:54:58.845Z,99.99
2023-02-18T08:55:58.861Z,99.99
2023-02-18T08:56:58.861Z,99.99
2023-02-18T08:57:58.854Z,99.99
2023-02-18T08:58:58.818Z,99.99
2023-02-18T08:59:58.826Z,99.99
2023-02-18T09:00:58.825Z,99.99
2023-02-18T09:01:58.794Z,99.99
2023-02-18T09:02:58.841Z,99.99
2023-02-18T09:03:58.820Z,99.99
2023-02-18T09:04:58.761Z,99.99
2023-02-18T09:05:58.766Z,99.99
2023-02-18T09:06:58.764Z,99.99
2023-02-18T09:07:58.782Z,99.99
2023-02-18T09:08:58.768Z,99.99
2023-02-18T09:09:58.721Z,99.99
2023-02-18T09:10:59.755Z,99.99
2023-02-18T09:11:58.749Z,99.99
2023-02-18T09:12:58.760Z,99.99
2023-02-18T09:13:58.738Z,99.96
2023-02-18T09:14:58.693Z,99.66
2023-02-18T09:15:58.737Z,99.66
2023-02-18T09:16:58.710Z,99.76
2023-02-18T09:17:58.662Z,99.15
2023-02-18T09:18:58.726Z,99.15
2023-02-18T09:19:58.658Z,99.20
2023-02-18T09:20:58.644Z,98.79
2023-02-18T09:22:00.720Z,98.38
2023-02-18T09:22:59.656Z,98.49
2023-02-18T09:23:58.674Z,98.07
2023-02-18T09:24:58.636Z,98.18
2023-02-18T09:25:58.623Z,98.49
2023-02-18T09:26:58.591Z,98.07
2023-02-18T09:27:59.257Z,97.77
2023-02-18T09:28:58.586Z,98.07
2023-02-18T09:29:58.667Z,97.31
2023-02-18T09:30:58.655Z,97.46
2023-02-18T09:31:58.588Z,97.36
2023-02-18T09:32:58.608Z,97.05
2023-02-18T09:33:58.549Z,97.15
2023-02-18T09:34:58.542Z,96.84
2023-02-18T09:35:58.565Z,96.44
2023-02-18T09:36:58.528Z,96.39
2023-02-18T09:37:58.533Z,96.80
2023-02-18T09:38:58.601Z,96.29
2023-02-18T09:39:59.256Z,96.80
2023-02-18T09:40:58.509Z,96.54
2023-02-18T09:41:58.489Z,96.08
2023-02-18T09:42:58.461Z,95.98
2023-02-18T09:43:58.459Z,95.57
2023-02-18T09:44:58.446Z,95.37
2023-02-18T09:45:58.495Z,95.06
2023-02-18T09:46:58.517Z,95.26
2023-02-18T09:47:58.426Z,95.26
2023-02-18T09:48:58.415Z,95.26
2023-02-18T09:49:58.419Z,95.17
2023-02-18T09:50:58.403Z,94.55
2023-02-18T09:51:58.408Z,95.43
2023-02-18T09:52:58.423Z,94.92
2023-02-18T09:53:58.373Z,95.22
2023-02-18T09:54:58.364Z,94.30
2023-02-18T09:55:58.358Z,95.32
2023-02-18T09:56:58.366Z,95.12
2023-02-18T09:57:58.372Z,95.12
2023-02-18T09:58:58.338Z,95.26
2023-02-18T09:59:58.363Z,95.26
2023-02-18T10:00:58.335Z,95.37
2023-02-18T10:01:58.367Z,94.96
2023-02-18T10:02:58.343Z,95.06
2023-02-18T10:03:58.315Z,95.26
2023-02-18T10:04:58.312Z,94.34
2023-02-18T10:05:58.351Z,94.55
2023-02-18T10:06:58.333Z,94.75
2023-02-18T10:07:58.289Z,94.34
2023-02-18T10:08:58.279Z,94.14
2023-02-18T10:09:58.311Z,93.89
2023-02-18T10:10:58.291Z,94.34
2023-02-18T10:11:58.292Z,93.89
2023-02-18T10:12:58.227Z,93.84
2023-02-18T10:13:58.230Z,93.93
2023-02-18T10:14:58.257Z,94.55
2023-02-18T10:15:58.280Z,94.75
2023-02-18T10:16:58.234Z,94.75
2023-02-18T10:17:58.230Z,93.93
2023-02-18T10:18:58.232Z,94.04
2023-02-18T10:19:58.204Z,93.73
2023-02-18T10:20:58.339Z,93.73
2023-02-18T10:21:58.204Z,94.75
2023-02-18T10:22:58.185Z,94.55
2023-02-18T10:23:58.267Z,94.04
2023-02-18T10:24:59.220Z,94.34
2023-02-18T10:25:58.297Z,93.22
2023-02-18T10:26:58.133Z,93.18
2023-02-18T10:27:58.206Z,93.18
2023-02-18T10:28:58.111Z,91.85
2023-02-18T10:29:58.162Z,92.56
2023-02-18T10:30:58.223Z,92.46
2023-02-18T10:31:58.194Z,93.18
2023-02-18T10:32:58.123Z,93.38
2023-02-18T10:33:58.159Z,92.87
2023-02-18T10:35:00.256Z,93.28
2023-02-18T10:35:59.077Z,93.07
2023-02-18T10:36:58.057Z,92.77
2023-02-18T10:37:58.071Z,92.66
2023-02-18T10:38:58.083Z,91.23
2023-02-18T10:39:58.059Z,91.03
2023-02-18T10:40:59.888Z,90.58
2023-02-18T10:41:59.031Z,90.58
2023-02-18T10:42:58.071Z,90.17
2023-02-18T10:43:57.994Z,90.37
2023-02-18T10:44:58.003Z,90.37
2023-02-18T10:45:58.009Z,89.65
2023-02-18T10:46:58.015Z,88.79
2023-02-18T10:47:58.023Z,89.31
2023-02-18T10:48:57.983Z,88.79
2023-02-18T10:49:57.968Z,89.00
2023-02-18T10:50:57.956Z,88.53
2023-02-18T10:51:58.000Z,89.51
2023-02-18T10:52:57.983Z,89.76
2023-02-18T10:53:58.050Z,89.86
2023-02-18T10:54:57.933Z,89.45
2023-02-18T10:55:57.941Z,89.56
2023-02-18T10:56:57.929Z,89.86
2023-02-18T10:57:57.881Z,90.27
2023-02-18T10:58:57.872Z,89.76
2023-02-18T10:59:58.001Z,89.76
2023-02-18T11:00:57.883Z,90.27
2023-02-18T11:01:57.943Z,90.27
2023-02-18T11:02:57.858Z,89.35
2023-02-18T11:03:57.846Z,89.90
2023-02-18T11:04:57.890Z,89.86
2023-02-18T11:05:57.864Z,89.45
2023-02-18T11:06:57.941Z,88.64
2023-02-18T11:07:57.811Z,88.74
2023-02-18T11:08:57.810Z,88.74
2023-02-18T11:09:57.823Z,89.25
2023-02-18T11:10:57.791Z,88.88
2023-02-18T11:12:07.785Z,89.15
2023-02-18T11:12:59.770Z,89.56
2023-02-18T11:13:57.766Z,89.70
2023-02-18T11:14:57.792Z,89.80
2023-02-18T11:15:57.865Z,89.70
2023-02-18T11:16:57.737Z,89.80
2023-02-18T11:17:57.733Z,90.00
2023-02-18T11:18:57.742Z,90.82
2023-02-18T11:19:57.745Z,90.11
2023-02-18T11:20:57.716Z,90.82
2023-02-18T11:21:57.702Z,90.72
2023-02-18T11:22:57.714Z,90.21
2023-02-18T11:23:57.825Z,90.11
2023-02-18T11:24:57.718Z,90.31
2023-02-18T11:25:57.702Z,89.29
2023-02-18T11:26:57.663Z,89.39
2023-02-18T11:27:57.645Z,89.39
2023-02-18T11:28:57.672Z,90.21
2023-02-18T11:29:57.668Z,90.62
2023-02-18T11:30:57.696Z,90.62
2023-02-18T11:31:57.673Z,90.92
2023-02-18T11:32:57.625Z,91.23
2023-02-18T11:33:57.630Z,91.54
2023-02-18T11:34:57.629Z,90.62
2023-02-18T11:35:57.605Z,90.31
2023-02-18T11:36:58.285Z,90.21
2023-02-18T11:37:57.574Z,90.62
2023-02-18T11:38:57.591Z,90.72
2023-02-18T11:39:57.560Z,90.62
2023-02-18T11:40:57.585Z,90.82
2023-02-18T11:41:57.575Z,90.41
2023-02-18T11:42:57.527Z,90.72
2023-02-18T11:43:57.564Z,90.82
2023-02-18T11:44:57.530Z,91.54
2023-02-18T11:45:57.506Z,91.33
2023-02-18T11:46:57.547Z,91.03
2023-02-18T11:47:57.592Z,90.31
2023-02-18T11:48:57.538Z,91.03
2023-02-18T11:49:57.501Z,90.97
2023-02-18T11:50:57.484Z,91.17
2023-02-18T11:51:57.499Z,91.27
2023-02-18T11:52:57.514Z,91.78
2023-02-18T11:53:57.512Z,91.85
2023-02-18T11:54:58.404Z,92.91
2023-02-18T11:55:57.453Z,93.48
2023-02-18T11:56:57.474Z,93.84
2023-02-18T11:57:57.484Z,94.18
2023-02-18T11:58:57.426Z,94.59
2023-02-18T11:59:57.430Z,95.62
2023-02-18T12:00:57.428Z,96.44
2023-02-18T12:01:58.357Z,96.28
2023-02-18T12:02:57.395Z,96.17
2023-02-18T12:03:57.392Z,95.87
2023-02-18T12:04:58.391Z,96.54
2023-02-18T12:05:57.388Z,96.39
2023-02-18T12:06:57.359Z,95.98
2023-02-18T12:07:58.191Z,96.23
2023-02-18T12:08:57.359Z,95.67
2023-02-18T12:09:58.224Z,95.51
2023-02-18T12:10:57.356Z,94.55
2023-02-18T12:11:59.854Z,95.10
2023-02-18T12:12:58.311Z,94.80
2023-02-18T12:13:57.312Z,94.49
2023-02-18T12:14:57.332Z,94.55
2023-02-18T12:15:57.287Z,94.55
2023-02-18T12:16:57.320Z,95.26
2023-02-18T12:17:57.314Z,94.45
2023-02-18T12:18:57.426Z,94.04
2023-02-18T12:19:57.289Z,94.34
2023-02-18T12:20:57.253Z,94.04
2023-02-18T12:21:57.254Z,94.75
2023-02-18T12:22:57.813Z,94.96
2023-02-18T12:23:57.780Z,93.12
2023-02-18T12:24:57.261Z,93.93
2023-02-18T12:25:57.223Z,93.73
2023-02-18T12:26:57.239Z,94.04
2023-02-18T12:27:57.190Z,93.32
2023-02-18T12:29:29.602Z,93.22
2023-02-18T12:30:29.220Z,93.22
2023-02-18T12:30:57.187Z,92.50
2023-02-18T12:31:57.209Z,92.81
2023-02-18T12:32:57.248Z,93.01
2023-02-18T12:33:57.145Z,91.69
2023-02-18T12:34:57.133Z,91.89
2023-02-18T12:35:57.171Z,92.15
2023-02-18T12:36:57.143Z,91.85
2023-02-18T12:37:57.150Z,93.07
2023-02-18T12:38:57.121Z,92.05
2023-02-18T12:39:58.133Z,92.01
2023-02-18T12:40:57.275Z,91.09
2023-02-18T12:41:57.106Z,91.19
2023-02-18T12:42:57.093Z,92.01
2023-02-18T12:43:57.103Z,90.37
2023-02-18T12:44:57.080Z,91.33
2023-02-18T12:45:57.148Z,91.60
2023-02-18T12:46:57.094Z,91.91
2023-02-18T12:47:57.034Z,91.29
2023-02-18T12:48:57.036Z,91.70
2023-02-18T12:49:57.146Z,91.19
2023-02-18T12:50:57.027Z,91.09
2023-02-18T12:51:57.063Z,91.19
2023-02-18T12:52:57.090Z,91.09
2023-02-18T12:53:57.095Z,91.50
2023-02-18T12:54:57.009Z,91.19
2023-02-18T12:55:57.003Z,92.21
2023-02-18T12:56:57.028Z,92.01
2023-02-18T12:57:57.051Z,90.47
2023-02-18T12:58:56.981Z,90.99
2023-02-18T12:59:56.975Z,91.09
2023-02-18T13:00:56.957Z,90.58
2023-02-18T13:01:57.036Z,91.09
2023-02-18T13:02:56.996Z,90.99
2023-02-18T13:03:56.994Z,90.37
2023-02-18T13:04:57.897Z,90.27
2023-02-18T13:05:56.900Z,90.68
2023-02-18T13:06:56.921Z,90.17
2023-02-18T13:07:56.916Z,90.17
2023-02-18T13:08:56.892Z,90.68
2023-02-18T13:09:56.887Z,90.37
2023-02-18T13:10:56.862Z,90.68
2023-02-18T13:11:56.850Z,90.27